createdAt,value
2018-10-07T00:01:41.160Z,8.13
2018-10-07T00:04:09.410Z,8.30
2018-10-07T00:06:37.620Z,8.10
2018-10-07T00:09:07.087Z,7.53
2018-10-07T00:11:35.627Z,7.40
2018-10-07T00:14:03.976Z,7.57
2018-10-07T00:16:32.297Z,7.30
2018-10-07T00:19:00.541Z,7.70
2018-10-07T00:21:28.737Z,6.87
2018-10-07T00:23:56.946Z,7.97
2018-10-07T00:26:25.219Z,8.87
2018-10-07T00:28:53.469Z,8.10
2018-10-07T00:31:21.745Z,7.87
2018-10-07T00:33:49.973Z,8.27
2018-10-07T00:36:18.228Z,7.63
2018-10-07T00:38:46.422Z,7.20
2018-10-07T00:41:14.692Z,7.40
2018-10-07T00:43:42.969Z,8.70
2018-10-07T00:46:11.242Z,8.63
2018-10-07T00:48:39.445Z,8.13
2018-10-07T00:51:07.662Z,9.70
2018-10-07T00:53:36.146Z,20.00
2018-10-07T00:56:04.392Z,18.80
2018-10-07T00:58:33.262Z,19.80
2018-10-07T01:01:01.497Z,23.17
2018-10-07T01:03:29.722Z,26.30
2018-10-07T01:05:57.980Z,26.73
2018-10-07T01:08:26.237Z,30.30
2018-10-07T01:10:54.473Z,30.30
2018-10-07T01:13:22.723Z,34.43
2018-10-07T01:15:50.975Z,35.23
2018-10-07T01:18:19.221Z,37.03
2018-10-07T01:20:47.478Z,38.40
2018-10-07T01:23:15.706Z,40.43
2018-10-07T01:25:43.932Z,38.90
2018-10-07T01:28:12.181Z,42.33
2018-10-07T01:30:40.447Z,40.17
2018-10-07T01:33:08.635Z,41.77
2018-10-07T01:35:36.864Z,41.07
2018-10-07T01:38:05.106Z,43.30
2018-10-07T01:40:33.329Z,42.77
2018-10-07T01:43:01.534Z,41.73
2018-10-07T01:45:29.755Z,44.87
2018-10-07T01:47:57.991Z,47.10
2018-10-07T01:50:26.212Z,44.57
2018-10-07T01:52:54.458Z,45.53
2018-10-07T01:55:22.650Z,44.87
2018-10-07T01:57:50.852Z,45.97
2018-10-07T02:00:19.086Z,45.50
2018-10-07T02:02:47.330Z,47.03
2018-10-07T02:05:15.642Z,49.20
2018-10-07T02:07:43.966Z,47.57
2018-10-07T02:10:12.220Z,46.43
2018-10-07T02:12:40.446Z,47.90
2018-10-07T02:15:08.742Z,44.07
2018-10-07T02:17:36.971Z,45.87
2018-10-07T02:20:05.211Z,44.23
2018-10-07T02:22:33.466Z,41.37
2018-10-07T02:25:01.726Z,42.43
2018-10-07T02:27:30.053Z,47.13
2018-10-07T02:29:58.262Z,42.90
2018-10-07T02:32:26.482Z,43.57
2018-10-07T02:34:54.726Z,45.43
2018-10-07T02:37:22.990Z,43.93
2018-10-07T02:39:51.206Z,43.30
2018-10-07T02:42:19.466Z,39.33
2018-10-07T02:44:47.687Z,42.20
2018-10-07T02:47:15.915Z,41.60
2018-10-07T02:49:44.127Z,40.07
2018-10-07T02:52:12.482Z,41.70
2018-10-07T02:54:40.743Z,44.80
2018-10-07T02:57:09.014Z,40.13
2018-10-07T02:59:37.298Z,44.60
2018-10-07T03:02:05.546Z,46.10
2018-10-07T03:04:33.843Z,42.47
2018-10-07T03:07:02.164Z,42.77
2018-10-07T03:09:30.389Z,42.13
2018-10-07T03:11:58.609Z,39.50
2018-10-07T03:14:26.834Z,44.63
2018-10-07T03:16:55.041Z,41.23
2018-10-07T03:19:23.236Z,41.90
2018-10-07T03:21:51.434Z,40.00
2018-10-07T03:24:19.649Z,39.60
2018-10-07T03:26:47.858Z,37.70
2018-10-07T03:29:16.154Z,39.63
2018-10-07T03:31:44.369Z,38.53
2018-10-07T03:34:12.596Z,42.40
2018-10-07T03:36:40.827Z,42.23
2018-10-07T03:39:09.440Z,45.50
2018-10-07T03:41:37.738Z,47.33
2018-10-07T03:44:05.972Z,47.17
2018-10-07T03:46:34.204Z,46.53
2018-10-07T03:49:02.529Z,47.17
2018-10-07T03:51:30.734Z,46.80
2018-10-07T03:53:58.949Z,49.73
2018-10-07T03:56:27.158Z,48.70
2018-10-07T03:58:55.381Z,47.60
2018-10-07T04:01:23.599Z,46.23
2018-10-07T04:03:51.857Z,47.90
2018-10-07T04:06:20.074Z,44.77
2018-10-07T04:08:48.289Z,47.90
2018-10-07T04:11:16.491Z,49.83
2018-10-07T04:13:44.685Z,49.17
2018-10-07T04:16:12.917Z,50.73
2018-10-07T04:18:41.170Z,51.00
2018-10-07T04:21:09.400Z,50.73
2018-10-07T04:23:37.604Z,54.57
2018-10-07T04:26:05.829Z,55.50
2018-10-07T04:28:34.073Z,53.57
2018-10-07T04:31:02.282Z,55.73
2018-10-07T04:33:30.493Z,57.00
2018-10-07T04:35:58.705Z,56.17
2018-10-07T04:38:26.917Z,57.77
2018-10-07T04:40:55.129Z,57.93
2018-10-07T04:43:23.362Z,58.23
2018-10-07T04:45:51.594Z,57.53
2018-10-07T04:48:19.785Z,56.87
2018-10-07T04:50:48.022Z,56.20
2018-10-07T04:53:16.249Z,58.73
2018-10-07T04:55:44.462Z,59.70
2018-10-07T04:58:12.664Z,55.80
2018-10-07T05:00:40.898Z,57.30
2018-10-07T05:03:09.137Z,57.67
2018-10-07T05:05:37.480Z,56.23
2018-10-07T05:08:06.174Z,58.77
2018-10-07T05:10:54.152Z,57.07
2018-10-07T05:13:24.330Z,58.53
2018-10-07T05:15:55.645Z,58.17
2018-10-07T05:18:24.341Z,56.63
2018-10-07T05:20:52.850Z,57.63
2018-10-07T05:23:21.304Z,61.00
2018-10-07T05:25:49.546Z,57.23
2018-10-07T05:28:18.296Z,56.20
2018-10-07T05:30:46.561Z,55.77
2018-10-07T05:33:14.923Z,55.03
2018-10-07T05:35:43.272Z,56.97
2018-10-07T05:38:11.477Z,58.13
2018-10-07T05:40:39.697Z,58.27
2018-10-07T05:43:07.936Z,61.17
2018-10-07T05:45:36.139Z,59.57
2018-10-07T05:48:04.361Z,63.33
2018-10-07T05:50:32.617Z,59.07
2018-10-07T05:53:00.850Z,59.87
2018-10-07T05:55:29.065Z,57.73
2018-10-07T05:57:59.498Z,57.23
2018-10-07T06:00:28.729Z,56.80
2018-10-07T06:03:07.339Z,57.73
2018-10-07T06:05:36.770Z,59.60
2018-10-07T06:08:05.011Z,55.40
2018-10-07T06:10:33.258Z,55.50
2018-10-07T06:13:01.504Z,57.23
2018-10-07T06:15:45.564Z,57.87
2018-10-07T06:18:13.970Z,59.07
2018-10-07T06:20:42.285Z,58.03
2018-10-07T06:23:10.750Z,60.83
2018-10-07T06:25:39.021Z,58.70
2018-10-07T06:28:08.781Z,57.93
2018-10-07T06:30:37.513Z,58.87
2018-10-07T06:33:05.769Z,57.20
2018-10-07T06:35:34.081Z,59.23
2018-10-07T06:38:02.338Z,60.70
2018-10-07T06:40:30.616Z,57.83
2018-10-07T06:42:58.874Z,56.50
2018-10-07T06:45:27.152Z,58.37
2018-10-07T06:47:55.368Z,55.30
2018-10-07T06:50:23.612Z,57.63
2018-10-07T06:52:51.978Z,56.23
2018-10-07T06:55:20.208Z,56.87
2018-10-07T06:57:48.503Z,58.13
2018-10-07T07:00:16.702Z,58.03
2018-10-07T07:02:44.962Z,58.43
2018-10-07T07:05:13.164Z,55.97
2018-10-07T07:07:41.385Z,58.67
2018-10-07T07:10:09.654Z,52.67
2018-10-07T07:12:37.942Z,49.47
2018-10-07T07:15:06.202Z,44.37
2018-10-07T07:17:34.406Z,41.97
2018-10-07T07:20:02.686Z,38.87
2018-10-07T07:22:30.868Z,36.80
2018-10-07T07:24:59.158Z,35.47
2018-10-07T07:27:27.462Z,33.97
2018-10-07T07:29:55.770Z,33.63
2018-10-07T07:32:24.045Z,31.03
2018-10-07T07:34:52.365Z,30.60
2018-10-07T07:37:21.638Z,29.43
2018-10-07T07:39:49.846Z,28.27
2018-10-07T07:42:18.142Z,28.43
2018-10-07T07:44:46.301Z,25.60
2018-10-07T07:47:14.540Z,26.97
2018-10-07T07:49:42.763Z,24.87
2018-10-07T07:52:10.985Z,21.27
2018-10-07T07:54:40.279Z,20.57
2018-10-07T07:57:08.531Z,19.43
2018-10-07T07:59:36.753Z,20.13
2018-10-07T08:02:05.010Z,18.30
2018-10-07T08:04:33.229Z,18.40
2018-10-07T08:07:01.477Z,17.23
2018-10-07T08:09:29.739Z,16.87
2018-10-07T08:11:58.014Z,14.20
2018-10-07T08:14:26.235Z,12.43
2018-10-07T08:16:54.456Z,12.70
2018-10-07T08:19:22.657Z,11.43
2018-10-07T08:21:50.865Z,10.90
2018-10-07T08:24:20.246Z,9.63
2018-10-07T08:26:48.453Z,9.93
2018-10-07T08:29:16.745Z,9.03
2018-10-07T08:31:44.977Z,8.53
2018-10-07T08:34:13.346Z,8.20
2018-10-07T08:36:41.634Z,7.40
2018-10-07T08:39:10.301Z,7.03
2018-10-07T08:41:38.729Z,6.43
2018-10-07T08:44:07.221Z,6.93
2018-10-07T08:46:36.509Z,7.13
2018-10-07T08:49:04.728Z,7.10
2018-10-07T08:51:32.946Z,7.27
2018-10-07T08:54:01.189Z,7.27
2018-10-07T08:56:29.730Z,7.27
2018-10-07T08:58:57.881Z,8.13
2018-10-07T09:01:26.114Z,7.30
2018-10-07T09:03:54.328Z,6.57
2018-10-07T09:06:22.529Z,5.90
2018-10-07T09:08:50.776Z,5.97
2018-10-07T09:11:18.966Z,6.50
2018-10-07T09:13:48.267Z,5.70
2018-10-07T09:16:16.486Z,6.43
2018-10-07T09:18:44.698Z,6.50
2018-10-07T09:21:12.949Z,6.67
2018-10-07T09:23:41.186Z,6.70
2018-10-07T09:26:09.405Z,6.03
2018-10-07T09:28:37.701Z,6.43
2018-10-07T09:31:06.108Z,6.63
2018-10-07T09:33:34.300Z,6.43
2018-10-07T09:36:02.502Z,6.50
2018-10-07T09:38:30.750Z,6.93
2018-10-07T09:40:59.056Z,6.03
2018-10-07T09:43:27.269Z,6.87
2018-10-07T09:45:55.568Z,6.97
2018-10-07T09:48:23.857Z,6.33
2018-10-07T09:50:52.105Z,7.17
2018-10-07T09:53:20.338Z,7.50
2018-10-07T09:55:48.585Z,7.73
2018-10-07T09:58:16.783Z,7.57
2018-10-07T10:00:45.001Z,7.40
2018-10-07T10:03:13.200Z,7.87
2018-10-07T10:05:41.463Z,7.80
2018-10-07T10:08:10.325Z,7.37
2018-10-07T10:10:38.598Z,6.80
2018-10-07T10:13:06.925Z,6.57
2018-10-07T10:15:35.158Z,6.97
2018-10-07T10:18:06.360Z,6.67
2018-10-07T10:20:48.529Z,6.17
2018-10-07T10:23:30.002Z,5.77
2018-10-07T10:26:10.607Z,6.17
2018-10-07T10:28:46.938Z,5.63
2018-10-07T10:31:20.795Z,5.67
2018-10-07T10:34:09.969Z,6.40
2018-10-07T10:36:49.303Z,5.53
2018-10-07T10:40:24.750Z,6.03
2018-10-07T10:43:07.838Z,5.70
2018-10-07T10:45:40.119Z,5.77
2018-10-07T10:48:15.556Z,5.83
2018-10-07T10:50:52.754Z,5.70
2018-10-07T10:53:25.058Z,5.90
2018-10-07T10:56:05.243Z,6.27
2018-10-07T11:00:54.999Z,5.60
2018-10-07T11:03:31.109Z,5.43
2018-10-07T11:06:07.226Z,6.03
2018-10-07T11:08:45.809Z,5.93
2018-10-07T11:11:22.081Z,5.37
2018-10-07T11:13:57.321Z,6.17
2018-10-07T11:16:43.787Z,5.37
2018-10-07T11:19:32.697Z,5.17
2018-10-07T11:22:34.561Z,5.40
2018-10-07T11:26:16.931Z,4.57
2018-10-07T11:30:21.036Z,4.20
2018-10-07T11:32:58.625Z,4.37
2018-10-07T11:38:12.942Z,4.60
2018-10-07T11:40:49.701Z,4.10
2018-10-07T11:44:34.663Z,4.90
2018-10-07T11:47:16.842Z,4.80
2018-10-07T11:49:53.321Z,4.47
2018-10-07T11:54:01.790Z,4.43
2018-10-07T11:56:30.049Z,4.83
2018-10-07T11:58:58.273Z,4.80
2018-10-07T12:01:27.558Z,5.80
2018-10-07T12:03:56.030Z,5.10
2018-10-07T12:06:24.617Z,5.03
2018-10-07T12:08:52.854Z,5.00
2018-10-07T12:11:21.073Z,4.90
2018-10-07T12:13:49.310Z,4.47
2018-10-07T12:16:17.599Z,4.60
2018-10-07T12:18:45.977Z,4.87
2018-10-07T12:21:14.218Z,4.27
2018-10-07T12:23:42.449Z,4.23
2018-10-07T12:26:10.698Z,4.30
2018-10-07T12:28:40.021Z,4.60
2018-10-07T12:31:08.530Z,4.80
2018-10-07T12:33:36.761Z,4.73
2018-10-07T12:36:05.354Z,4.90
2018-10-07T12:38:33.641Z,4.70
2018-10-07T12:41:01.888Z,4.57
2018-10-07T12:43:30.108Z,4.67
2018-10-07T12:45:58.317Z,4.53
2018-10-07T12:48:26.539Z,4.10
2018-10-07T12:50:54.768Z,3.93
2018-10-07T12:53:23.012Z,4.10
2018-10-07T12:55:51.258Z,3.53
2018-10-07T12:58:19.494Z,3.60
2018-10-07T13:00:47.702Z,3.13
2018-10-07T13:03:16.965Z,3.60
2018-10-07T13:05:45.217Z,3.53
2018-10-07T13:08:13.519Z,2.63
2018-10-07T13:10:41.811Z,3.37
2018-10-07T13:13:10.066Z,3.13
2018-10-07T13:15:38.476Z,2.90
2018-10-07T13:18:06.764Z,3.23
2018-10-07T13:20:35.039Z,2.97
2018-10-07T13:23:03.358Z,2.50
2018-10-07T13:25:31.565Z,2.47
2018-10-07T13:27:59.781Z,2.70
2018-10-07T13:30:28.026Z,2.23
2018-10-07T13:32:56.334Z,2.70
2018-10-07T13:35:24.631Z,2.40
2018-10-07T13:37:52.896Z,2.83
2018-10-07T13:40:21.174Z,2.33
2018-10-07T13:42:49.441Z,2.83
2018-10-07T13:45:17.802Z,2.17
2018-10-07T13:47:46.237Z,2.17
2018-10-07T13:50:16.489Z,2.80
2018-10-07T13:52:44.755Z,2.33
2018-10-07T13:55:13.034Z,2.60
2018-10-07T13:57:41.254Z,2.60
2018-10-07T14:00:09.456Z,2.40
2018-10-07T14:02:37.818Z,2.20
2018-10-07T14:05:06.013Z,2.30
2018-10-07T14:07:34.353Z,2.97
2018-10-07T14:10:02.555Z,2.60
2018-10-07T14:12:30.793Z,2.47
2018-10-07T14:14:59.041Z,3.00
2018-10-07T14:17:27.253Z,2.67
2018-10-07T14:19:55.543Z,3.13
2018-10-07T14:22:23.754Z,2.87
2018-10-07T14:24:51.981Z,2.97
2018-10-07T14:27:20.193Z,2.80
2018-10-07T14:29:48.502Z,2.90
2018-10-07T14:32:16.827Z,3.07
2018-10-07T14:34:45.054Z,2.87
2018-10-07T14:37:13.325Z,2.70
2018-10-07T14:39:41.629Z,2.47
2018-10-07T14:42:09.971Z,2.57
2018-10-07T14:44:39.237Z,2.60
2018-10-07T14:47:07.461Z,2.77
2018-10-07T14:49:35.706Z,3.20
2018-10-07T14:52:05.145Z,2.90
2018-10-07T14:54:33.497Z,2.60
2018-10-07T14:57:02.759Z,2.60
2018-10-07T14:59:31.052Z,2.60
2018-10-07T15:02:02.706Z,2.40
2018-10-07T15:04:30.967Z,2.13
2018-10-07T15:06:59.153Z,1.97
2018-10-07T15:09:27.385Z,1.70
2018-10-07T15:11:55.682Z,1.60
2018-10-07T15:14:23.929Z,2.07
2018-10-07T15:16:52.130Z,1.93
2018-10-07T15:19:20.357Z,2.10
2018-10-07T15:21:48.606Z,1.80
2018-10-07T15:24:16.791Z,1.90
2018-10-07T15:26:45.019Z,1.80
2018-10-07T15:29:13.279Z,1.77
2018-10-07T15:31:41.421Z,1.90
2018-10-07T15:34:09.631Z,1.70
2018-10-07T15:36:37.882Z,1.90
2018-10-07T15:39:07.024Z,1.47
2018-10-07T15:41:35.282Z,1.53
2018-10-07T15:44:03.512Z,1.80
2018-10-07T15:46:31.837Z,1.70
2018-10-07T15:49:00.094Z,1.60
2018-10-07T15:51:28.290Z,1.80
2018-10-07T15:53:56.533Z,1.37
2018-10-07T15:56:24.769Z,1.50
2018-10-07T15:58:53.067Z,1.90
2018-10-07T16:01:21.321Z,1.53
2018-10-07T16:03:49.530Z,2.03
2018-10-07T16:06:18.894Z,1.27
2018-10-07T16:08:47.179Z,1.30
2018-10-07T16:11:15.345Z,1.50
2018-10-07T16:13:43.574Z,1.77
2018-10-07T16:16:11.895Z,1.93
2018-10-07T16:18:40.163Z,1.63
2018-10-07T16:21:08.337Z,1.80
2018-10-07T16:23:36.582Z,2.30
2018-10-07T16:26:04.847Z,2.37
2018-10-07T16:28:33.000Z,2.00
2018-10-07T16:31:01.303Z,2.17
2018-10-07T16:33:29.637Z,2.43
2018-10-07T16:35:57.872Z,2.70
2018-10-07T16:38:26.321Z,2.63
2018-10-07T16:40:54.541Z,3.20
2018-10-07T16:43:22.760Z,3.07
2018-10-07T16:45:51.022Z,2.40
2018-10-07T16:48:19.358Z,2.23
2018-10-07T16:50:47.622Z,2.70
2018-10-07T16:53:15.943Z,2.43
2018-10-07T16:55:44.229Z,2.20
2018-10-07T16:58:12.438Z,1.80
2018-10-07T17:00:40.679Z,2.33
2018-10-07T17:03:09.045Z,2.23
2018-10-07T17:05:37.260Z,2.20
2018-10-07T17:08:05.558Z,2.60
2018-10-07T17:10:33.786Z,2.73
2018-10-07T17:13:02.201Z,2.47
2018-10-07T17:15:30.571Z,2.33
2018-10-07T17:17:58.811Z,2.93
2018-10-07T17:20:27.166Z,2.80
2018-10-07T17:22:55.511Z,3.43
2018-10-07T17:25:23.730Z,4.90
2018-10-07T17:27:52.003Z,4.33
2018-10-07T17:30:20.285Z,4.47
2018-10-07T17:32:49.668Z,3.67
2018-10-07T17:35:18.231Z,3.70
2018-10-07T17:37:46.553Z,3.40
2018-10-07T17:40:14.814Z,3.80
2018-10-07T17:42:43.882Z,3.40
2018-10-07T17:45:12.294Z,3.30
2018-10-07T17:47:40.959Z,3.60
2018-10-07T17:50:09.231Z,3.80
2018-10-07T17:52:37.917Z,3.53
2018-10-07T17:55:06.250Z,3.40
2018-10-07T17:57:34.861Z,3.90
2018-10-07T18:00:04.329Z,3.93
2018-10-07T18:02:32.869Z,3.70
2018-10-07T18:05:01.720Z,4.03
2018-10-07T18:07:30.398Z,3.70
2018-10-07T18:09:59.317Z,4.30
2018-10-07T18:12:28.245Z,4.23
2018-10-07T18:14:56.621Z,4.30
2018-10-07T18:17:26.410Z,4.67
2018-10-07T18:19:54.904Z,4.40
2018-10-07T18:22:23.263Z,4.60
2018-10-07T18:24:51.652Z,4.43
2018-10-07T18:27:19.829Z,5.03
2018-10-07T18:29:49.179Z,4.77
2018-10-07T18:32:17.390Z,5.30
2018-10-07T18:34:46.352Z,4.90
2018-10-07T18:37:14.509Z,4.90
2018-10-07T18:39:42.721Z,5.03
2018-10-07T18:42:10.998Z,5.57
2018-10-07T18:44:40.463Z,5.23
2018-10-07T18:47:08.691Z,5.17
2018-10-07T18:49:37.121Z,4.87
2018-10-07T18:52:06.492Z,4.60
2018-10-07T18:54:34.726Z,5.40
2018-10-07T18:57:02.941Z,5.10
2018-10-07T18:59:31.245Z,5.73
2018-10-07T19:02:00.577Z,5.70
2018-10-07T19:04:28.794Z,5.30
2018-10-07T19:06:57.005Z,5.17
2018-10-07T19:09:26.272Z,5.50
2018-10-07T19:11:54.467Z,5.33
2018-10-07T19:14:22.746Z,5.63
2018-10-07T19:16:50.934Z,5.50
2018-10-07T19:19:19.454Z,5.27
2018-10-07T19:21:47.742Z,5.40
2018-10-07T19:24:15.962Z,4.90
2018-10-07T19:26:44.174Z,4.63
2018-10-07T19:29:12.377Z,5.43
2018-10-07T19:31:40.617Z,6.57
2018-10-07T19:34:08.943Z,5.47
2018-10-07T19:36:37.229Z,5.30
2018-10-07T19:39:08.035Z,4.83
2018-10-07T19:41:36.320Z,4.90
2018-10-07T19:44:04.729Z,5.60
2018-10-07T19:46:33.505Z,5.57
2018-10-07T19:49:02.520Z,6.00
2018-10-07T19:51:31.029Z,5.63
2018-10-07T19:53:59.663Z,5.43
2018-10-07T19:56:28.065Z,6.07
2018-10-07T19:58:56.806Z,5.83
2018-10-07T20:01:25.501Z,5.30
2018-10-07T20:03:54.177Z,5.53
2018-10-07T20:06:22.722Z,5.57
2018-10-07T20:08:51.350Z,5.57
2018-10-07T20:11:19.978Z,5.93
2018-10-07T20:13:48.506Z,5.77
2018-10-07T20:16:17.056Z,5.40
2018-10-07T20:18:45.756Z,5.83
2018-10-07T20:21:14.359Z,6.03
2018-10-07T20:23:43.146Z,5.40
2018-10-07T20:26:11.563Z,5.33
2018-10-07T20:28:39.821Z,5.50
2018-10-07T20:31:08.372Z,5.67
2018-10-07T20:33:36.613Z,6.10
2018-10-07T20:36:05.218Z,6.53
2018-10-07T20:38:33.991Z,6.20
2018-10-07T20:41:02.253Z,6.03
2018-10-07T20:43:30.486Z,5.80
2018-10-07T20:45:58.718Z,6.50
2018-10-07T20:48:27.075Z,6.03
2018-10-07T20:50:57.190Z,6.43
2018-10-07T20:53:25.716Z,6.17
2018-10-07T20:55:55.327Z,6.07
2018-10-07T20:58:23.712Z,5.47
2018-10-07T21:00:51.949Z,5.27
2018-10-07T21:03:20.230Z,5.47
2018-10-07T21:05:48.481Z,4.90
2018-10-07T21:08:16.728Z,5.23
2018-10-07T21:10:44.946Z,4.30
2018-10-07T21:13:13.206Z,4.30
2018-10-07T21:15:43.421Z,4.33
2018-10-07T21:18:12.737Z,4.30
2018-10-07T21:20:41.009Z,4.70
2018-10-07T21:23:09.318Z,4.03
2018-10-07T21:25:37.593Z,3.90
2018-10-07T21:28:06.836Z,4.00
2018-10-07T21:30:35.113Z,3.77
2018-10-07T21:33:03.408Z,4.43
2018-10-07T21:35:31.629Z,4.40
2018-10-07T21:37:59.816Z,4.37
2018-10-07T21:40:28.008Z,4.40
2018-10-07T21:42:56.241Z,4.37
2018-10-07T21:45:24.494Z,4.30
2018-10-07T21:47:52.693Z,4.80
2018-10-07T21:50:21.025Z,4.43
2018-10-07T21:52:49.250Z,4.47
2018-10-07T21:55:17.477Z,4.67
2018-10-07T21:57:45.681Z,4.00
2018-10-07T22:00:13.937Z,3.83
2018-10-07T22:02:42.157Z,4.13
2018-10-07T22:05:10.379Z,3.60
2018-10-07T22:07:38.593Z,4.50
2018-10-07T22:10:06.830Z,3.57
2018-10-07T22:12:35.074Z,3.73
2018-10-07T22:15:03.302Z,4.23
2018-10-07T22:17:31.521Z,3.60
2018-10-07T22:19:59.741Z,3.47
2018-10-07T22:22:27.965Z,3.90
2018-10-07T22:24:56.229Z,4.10
2018-10-07T22:27:24.436Z,3.77
2018-10-07T22:29:52.640Z,3.80
2018-10-07T22:32:20.853Z,3.87
2018-10-07T22:34:49.100Z,3.80
2018-10-07T22:37:17.319Z,3.80
2018-10-07T22:39:45.539Z,4.03
2018-10-07T22:42:13.773Z,3.73
2018-10-07T22:44:42.046Z,4.40
2018-10-07T22:47:10.277Z,4.47
2018-10-07T22:49:38.514Z,4.20
2018-10-07T22:52:06.874Z,4.37
2018-10-07T22:54:35.092Z,4.20
2018-10-07T22:57:03.304Z,4.23
2018-10-07T22:59:31.525Z,4.47
2018-10-07T23:01:59.777Z,4.37
2018-10-07T23:04:28.006Z,4.23
2018-10-07T23:06:56.238Z,5.10
2018-10-07T23:09:24.461Z,4.90
2018-10-07T23:11:52.682Z,4.70
2018-10-07T23:14:20.910Z,4.07
2018-10-07T23:16:49.149Z,4.17
2018-10-07T23:19:17.377Z,3.90
2018-10-07T23:21:45.602Z,4.03
2018-10-07T23:24:13.815Z,4.00
2018-10-07T23:26:42.015Z,3.77
2018-10-07T23:29:10.277Z,3.80
2018-10-07T23:31:38.758Z,4.10
2018-10-07T23:34:07.230Z,4.10
2018-10-07T23:36:35.508Z,3.87
2018-10-07T23:39:04.645Z,3.70
2018-10-07T23:41:32.914Z,4.20
2018-10-07T23:44:01.144Z,4.40
2018-10-07T23:46:29.366Z,3.90
2018-10-07T23:48:57.602Z,3.87
2018-10-07T23:51:25.903Z,4.00
2018-10-07T23:53:54.225Z,4.40
2018-10-07T23:56:22.418Z,3.77
2018-10-07T23:58:50.710Z,3.97
